Terminal Aerodrome Forecast
Issued by NWS Cleveland, OH

Home | Current Version | Previous Version | Text Only | Print | Product List | Glossary Off
Versions: 1 2 3 4 5 6 7 8 9 10 11 12 13 14

000
FTUS41 KCLE 200500
TAFCAK
TAF
KCAK 200522Z 2006/2106 31010KT P6SM OVC025
     FM201200 35007KT P6SM BKN250
     FM202200 35007KT P6SM OVC100
     FM210500 VRB03KT P6SM OVC070=

USA.gov is the U.S. government's official web portal to all federal, state and local government web resources and services.